sensor_id;sensor_type;location;lat;lon;timestamp;P1;durP1;ratioP1;P2;durP2;ratioP2
60426;SDS011;46274;47.168;27.604;2023-04-24T00:01:09;7.17;;;3.90;;
60426;SDS011;46274;47.168;27.604;2023-04-24T00:07:12;9.43;;;3.80;;
60426;SDS011;46274;47.168;27.604;2023-04-24T00:13:16;8.40;;;4.10;;
60426;SDS011;46274;47.168;27.604;2023-04-24T00:19:19;7.30;;;4.33;;
60426;SDS011;46274;47.168;27.604;2023-04-24T00:25:27;9.73;;;5.03;;
60426;SDS011;46274;47.168;27.604;2023-04-24T00:31:30;5.37;;;3.07;;
60426;SDS011;46274;47.168;27.604;2023-04-24T00:37:36;5.17;;;3.10;;
60426;SDS011;46274;47.168;27.604;2023-04-24T00:43:39;7.53;;;3.43;;
60426;SDS011;46274;47.168;27.604;2023-04-24T00:49:41;7.27;;;3.70;;
60426;SDS011;46274;47.168;27.604;2023-04-24T00:55:47;6.83;;;4.37;;
60426;SDS011;46274;47.168;27.604;2023-04-24T01:01:51;6.83;;;3.60;;
60426;SDS011;46274;47.168;27.604;2023-04-24T01:07:56;5.97;;;3.63;;
60426;SDS011;46274;47.168;27.604;2023-04-24T01:14:01;6.20;;;3.43;;
60426;SDS011;46274;47.168;27.604;2023-04-24T01:20:04;7.80;;;4.90;;
60426;SDS011;46274;47.168;27.604;2023-04-24T01:26:21;7.40;;;3.60;;
60426;SDS011;46274;47.168;27.604;2023-04-24T01:32:24;7.97;;;3.73;;
60426;SDS011;46274;47.168;27.604;2023-04-24T01:38:30;7.50;;;4.40;;
60426;SDS011;46274;47.168;27.604;2023-04-24T01:44:33;8.77;;;3.67;;
60426;SDS011;46274;47.168;27.604;2023-04-24T01:50:36;5.50;;;3.40;;
60426;SDS011;46274;47.168;27.604;2023-04-24T01:56:41;6.23;;;3.30;;
60426;SDS011;46274;47.168;27.604;2023-04-24T02:02:52;10.87;;;4.70;;
60426;SDS011;46274;47.168;27.604;2023-04-24T02:08:55;7.57;;;4.43;;
60426;SDS011;46274;47.168;27.604;2023-04-24T02:15:01;12.00;;;4.53;;
60426;SDS011;46274;47.168;27.604;2023-04-24T02:21:03;6.37;;;3.43;;
60426;SDS011;46274;47.168;27.604;2023-04-24T02:27:14;7.23;;;4.03;;
60426;SDS011;46274;47.168;27.604;2023-04-24T02:33:24;17.43;;;3.70;;
60426;SDS011;46274;47.168;27.604;2023-04-24T02:39:29;9.10;;;4.90;;
60426;SDS011;46274;47.168;27.604;2023-04-24T02:45:37;6.90;;;3.67;;
60426;SDS011;46274;47.168;27.604;2023-04-24T02:51:47;10.47;;;4.67;;
60426;SDS011;46274;47.168;27.604;2023-04-24T02:57:55;7.50;;;3.90;;
60426;SDS011;46274;47.168;27.604;2023-04-24T03:04:03;8.30;;;3.67;;
60426;SDS011;46274;47.168;27.604;2023-04-24T03:10:06;11.53;;;4.03;;
60426;SDS011;46274;47.168;27.604;2023-04-24T03:16:09;9.87;;;5.67;;
60426;SDS011;46274;47.168;27.604;2023-04-24T03:22:11;8.73;;;4.87;;
60426;SDS011;46274;47.168;27.604;2023-04-24T03:28:14;14.77;;;5.20;;
60426;SDS011;46274;47.168;27.604;2023-04-24T03:34:16;9.17;;;5.13;;
60426;SDS011;46274;47.168;27.604;2023-04-24T03:40:24;11.90;;;5.23;;
60426;SDS011;46274;47.168;27.604;2023-04-24T03:46:27;15.17;;;4.67;;
60426;SDS011;46274;47.168;27.604;2023-04-24T03:52:30;10.03;;;5.60;;
60426;SDS011;46274;47.168;27.604;2023-04-24T03:58:32;15.13;;;5.10;;
60426;SDS011;46274;47.168;27.604;2023-04-24T04:04:45;11.67;;;5.97;;
60426;SDS011;46274;47.168;27.604;2023-04-24T04:10:49;13.73;;;5.23;;
60426;SDS011;46274;47.168;27.604;2023-04-24T04:16:55;6.97;;;3.57;;
60426;SDS011;46274;47.168;27.604;2023-04-24T04:23:08;8.63;;;4.63;;
60426;SDS011;46274;47.168;27.604;2023-04-24T04:29:11;11.13;;;5.37;;
60426;SDS011;46274;47.168;27.604;2023-04-24T04:35:19;6.63;;;3.50;;
60426;SDS011;46274;47.168;27.604;2023-04-24T04:41:23;6.23;;;3.87;;
60426;SDS011;46274;47.168;27.604;2023-04-24T04:47:29;11.00;;;6.37;;
60426;SDS011;46274;47.168;27.604;2023-04-24T04:53:43;8.93;;;4.90;;
60426;SDS011;46274;47.168;27.604;2023-04-24T04:59:47;11.70;;;6.00;;
60426;SDS011;46274;47.168;27.604;2023-04-24T05:05:49;9.10;;;5.50;;
60426;SDS011;46274;47.168;27.604;2023-04-24T05:11:56;10.27;;;5.80;;
60426;SDS011;46274;47.168;27.604;2023-04-24T05:17:58;10.07;;;5.50;;
60426;SDS011;46274;47.168;27.604;2023-04-24T05:24:05;8.90;;;5.10;;
60426;SDS011;46274;47.168;27.604;2023-04-24T05:30:07;10.83;;;6.60;;
60426;SDS011;46274;47.168;27.604;2023-04-24T05:36:23;16.23;;;6.77;;
60426;SDS011;46274;47.168;27.604;2023-04-24T05:42:26;13.23;;;6.73;;
60426;SDS011;46274;47.168;27.604;2023-04-24T05:48:32;14.03;;;6.93;;
60426;SDS011;46274;47.168;27.604;2023-04-24T05:54:34;13.20;;;6.93;;
60426;SDS011;46274;47.168;27.604;2023-04-24T06:00:38;16.40;;;7.83;;
60426;SDS011;46274;47.168;27.604;2023-04-24T06:06:43;18.13;;;7.80;;
60426;SDS011;46274;47.168;27.604;2023-04-24T06:12:45;17.67;;;8.73;;
60426;SDS011;46274;47.168;27.604;2023-04-24T06:18:48;15.97;;;8.27;;
60426;SDS011;46274;47.168;27.604;2023-04-24T06:24:56;15.80;;;8.27;;
60426;SDS011;46274;47.168;27.604;2023-04-24T06:31:01;12.67;;;6.60;;
60426;SDS011;46274;47.168;27.604;2023-04-24T06:37:08;12.97;;;6.37;;
60426;SDS011;46274;47.168;27.604;2023-04-24T06:43:13;16.37;;;6.40;;
60426;SDS011;46274;47.168;27.604;2023-04-24T06:49:18;15.30;;;7.00;;
60426;SDS011;46274;47.168;27.604;2023-04-24T06:55:30;13.43;;;6.30;;
60426;SDS011;46274;47.168;27.604;2023-04-24T07:21:07;16.87;;;7.43;;
60426;SDS011;46274;47.168;27.604;2023-04-24T07:27:11;19.37;;;7.03;;
60426;SDS011;46274;47.168;27.604;2023-04-24T07:33:23;13.97;;;6.70;;
60426;SDS011;46274;47.168;27.604;2023-04-24T07:46:22;10.57;;;6.47;;
60426;SDS011;46274;47.168;27.604;2023-04-24T07:52:37;13.43;;;6.40;;
60426;SDS011;46274;47.168;27.604;2023-04-24T07:59:05;12.03;;;6.40;;
60426;SDS011;46274;47.168;27.604;2023-04-24T08:05:22;12.53;;;7.00;;
60426;SDS011;46274;47.168;27.604;2023-04-24T08:11:35;12.00;;;6.17;;
60426;SDS011;46274;47.168;27.604;2023-04-24T08:17:49;15.57;;;6.63;;
60426;SDS011;46274;47.168;27.604;2023-04-24T08:23:59;13.00;;;6.63;;
60426;SDS011;46274;47.168;27.604;2023-04-24T08:30:13;10.80;;;6.67;;
60426;SDS011;46274;47.168;27.604;2023-04-24T08:36:31;13.97;;;5.63;;
60426;SDS011;46274;47.168;27.604;2023-04-24T08:42:47;13.83;;;5.60;;
60426;SDS011;46274;47.168;27.604;2023-04-24T08:48:53;12.70;;;5.27;;
60426;SDS011;46274;47.168;27.604;2023-04-24T08:55:00;13.00;;;6.07;;
60426;SDS011;46274;47.168;27.604;2023-04-24T09:01:23;13.17;;;5.00;;
60426;SDS011;46274;47.168;27.604;2023-04-24T09:07:27;9.47;;;4.53;;
60426;SDS011;46274;47.168;27.604;2023-04-24T09:13:45;9.47;;;4.50;;
60426;SDS011;46274;47.168;27.604;2023-04-24T09:20:06;12.37;;;5.30;;
60426;SDS011;46274;47.168;27.604;2023-04-24T09:26:22;10.70;;;4.70;;
60426;SDS011;46274;47.168;27.604;2023-04-24T09:32:27;10.10;;;4.77;;
60426;SDS011;46274;47.168;27.604;2023-04-24T09:39:10;7.40;;;4.17;;
60426;SDS011;46274;47.168;27.604;2023-04-24T09:45:15;6.77;;;4.00;;
60426;SDS011;46274;47.168;27.604;2023-04-24T09:51:19;13.03;;;4.87;;
60426;SDS011;46274;47.168;27.604;2023-04-24T10:04:03;9.10;;;4.40;;
60426;SDS011;46274;47.168;27.604;2023-04-24T10:10:16;9.73;;;3.90;;
60426;SDS011;46274;47.168;27.604;2023-04-24T10:16:26;7.60;;;3.57;;
60426;SDS011;46274;47.168;27.604;2023-04-24T10:22:31;7.23;;;3.50;;
60426;SDS011;46274;47.168;27.604;2023-04-24T10:28:41;8.43;;;3.83;;
60426;SDS011;46274;47.168;27.604;2023-04-24T10:34:46;16.90;;;3.73;;
60426;SDS011;46274;47.168;27.604;2023-04-24T10:40:48;10.93;;;3.60;;
60426;SDS011;46274;47.168;27.604;2023-04-24T10:47:07;12.77;;;3.50;;
60426;SDS011;46274;47.168;27.604;2023-04-24T10:53:19;6.70;;;2.70;;
60426;SDS011;46274;47.168;27.604;2023-04-24T10:59:27;7.33;;;3.30;;
60426;SDS011;46274;47.168;27.604;2023-04-24T11:05:49;6.63;;;3.30;;
60426;SDS011;46274;47.168;27.604;2023-04-24T11:12:11;12.05;;;4.05;;
60426;SDS011;46274;47.168;27.604;2023-04-24T11:18:15;12.17;;;4.03;;
60426;SDS011;46274;47.168;27.604;2023-04-24T11:30:23;6.30;;;3.27;;
60426;SDS011;46274;47.168;27.604;2023-04-24T11:36:46;10.37;;;3.47;;
60426;SDS011;46274;47.168;27.604;2023-04-24T11:42:50;9.17;;;2.90;;
60426;SDS011;46274;47.168;27.604;2023-04-24T11:48:58;9.17;;;3.33;;
60426;SDS011;46274;47.168;27.604;2023-04-24T11:55:30;8.03;;;2.70;;
60426;SDS011;46274;47.168;27.604;2023-04-24T12:01:47;7.80;;;2.93;;
60426;SDS011;46274;47.168;27.604;2023-04-24T12:07:51;8.47;;;2.90;;
60426;SDS011;46274;47.168;27.604;2023-04-24T12:13:56;5.00;;;2.53;;
60426;SDS011;46274;47.168;27.604;2023-04-24T12:19:59;13.37;;;2.97;;
60426;SDS011;46274;47.168;27.604;2023-04-24T12:26:12;6.80;;;3.00;;
60426;SDS011;46274;47.168;27.604;2023-04-24T12:32:22;7.20;;;3.00;;
60426;SDS011;46274;47.168;27.604;2023-04-24T12:38:27;7.57;;;3.43;;
60426;SDS011;46274;47.168;27.604;2023-04-24T12:44:44;14.93;;;3.60;;
60426;SDS011;46274;47.168;27.604;2023-04-24T12:50:48;11.03;;;4.00;;
60426;SDS011;46274;47.168;27.604;2023-04-24T12:56:55;5.27;;;2.80;;
60426;SDS011;46274;47.168;27.604;2023-04-24T13:02:58;6.83;;;2.87;;
60426;SDS011;46274;47.168;27.604;2023-04-24T13:09:05;7.97;;;3.30;;
60426;SDS011;46274;47.168;27.604;2023-04-24T13:15:07;18.02;;;3.72;;
60426;SDS011;46274;47.168;27.604;2023-04-24T13:21:20;4.93;;;3.37;;
60426;SDS011;46274;47.168;27.604;2023-04-24T13:27:26;11.70;;;3.27;;
60426;SDS011;46274;47.168;27.604;2023-04-24T13:33:29;7.87;;;3.43;;
60426;SDS011;46274;47.168;27.604;2023-04-24T13:39:37;8.70;;;2.93;;
60426;SDS011;46274;47.168;27.604;2023-04-24T13:45:39;8.60;;;2.60;;
60426;SDS011;46274;47.168;27.604;2023-04-24T13:51:43;5.77;;;2.70;;
60426;SDS011;46274;47.168;27.604;2023-04-24T13:57:50;4.50;;;2.70;;
60426;SDS011;46274;47.168;27.604;2023-04-24T14:04:00;8.00;;;3.00;;
60426;SDS011;46274;47.168;27.604;2023-04-24T14:10:12;9.03;;;3.70;;
60426;SDS011;46274;47.168;27.604;2023-04-24T14:16:15;4.23;;;2.30;;
60426;SDS011;46274;47.168;27.604;2023-04-24T14:22:33;16.63;;;2.73;;
60426;SDS011;46274;47.168;27.604;2023-04-24T14:28:37;8.83;;;3.03;;
60426;SDS011;46274;47.168;27.604;2023-04-24T14:34:46;6.63;;;2.97;;
60426;SDS011;46274;47.168;27.604;2023-04-24T14:40:49;4.90;;;2.03;;
60426;SDS011;46274;47.168;27.604;2023-04-24T14:47:08;11.63;;;2.97;;
60426;SDS011;46274;47.168;27.604;2023-04-24T14:53:17;7.70;;;2.10;;
60426;SDS011;46274;47.168;27.604;2023-04-24T14:59:22;4.73;;;2.00;;
60426;SDS011;46274;47.168;27.604;2023-04-24T15:05:25;6.90;;;2.37;;
60426;SDS011;46274;47.168;27.604;2023-04-24T15:11:29;6.87;;;2.63;;
60426;SDS011;46274;47.168;27.604;2023-04-24T15:17:35;5.83;;;2.60;;
60426;SDS011;46274;47.168;27.604;2023-04-24T15:23:40;4.17;;;2.20;;
60426;SDS011;46274;47.168;27.604;2023-04-24T15:29:50;6.90;;;2.70;;
60426;SDS011;46274;47.168;27.604;2023-04-24T15:35:58;10.10;;;3.00;;
60426;SDS011;46274;47.168;27.604;2023-04-24T15:42:10;7.20;;;2.73;;
60426;SDS011;46274;47.168;27.604;2023-04-24T15:48:12;9.70;;;2.90;;
60426;SDS011;46274;47.168;27.604;2023-04-24T15:54:17;6.03;;;2.87;;
60426;SDS011;46274;47.168;27.604;2023-04-24T16:00:22;5.23;;;2.63;;
60426;SDS011;46274;47.168;27.604;2023-04-24T16:06:24;12.43;;;3.03;;
60426;SDS011;46274;47.168;27.604;2023-04-24T16:12:28;6.10;;;3.20;;
60426;SDS011;46274;47.168;27.604;2023-04-24T16:18:35;6.40;;;2.70;;
60426;SDS011;46274;47.168;27.604;2023-04-24T16:24:37;11.87;;;2.93;;
60426;SDS011;46274;47.168;27.604;2023-04-24T16:30:41;11.27;;;3.70;;
60426;SDS011;46274;47.168;27.604;2023-04-24T16:36:44;4.90;;;2.90;;
60426;SDS011;46274;47.168;27.604;2023-04-24T16:42:48;8.07;;;3.10;;
60426;SDS011;46274;47.168;27.604;2023-04-24T16:48:51;6.67;;;2.90;;
60426;SDS011;46274;47.168;27.604;2023-04-24T16:54:57;7.77;;;3.27;;
60426;SDS011;46274;47.168;27.604;2023-04-24T17:01:00;10.53;;;3.17;;
60426;SDS011;46274;47.168;27.604;2023-04-24T17:07:02;10.07;;;3.57;;
60426;SDS011;46274;47.168;27.604;2023-04-24T17:13:05;10.83;;;4.13;;
60426;SDS011;46274;47.168;27.604;2023-04-24T17:19:08;13.27;;;4.23;;
60426;SDS011;46274;47.168;27.604;2023-04-24T17:25:10;11.27;;;3.93;;
60426;SDS011;46274;47.168;27.604;2023-04-24T17:31:14;18.13;;;5.17;;
60426;SDS011;46274;47.168;27.604;2023-04-24T17:37:17;11.97;;;4.40;;
60426;SDS011;46274;47.168;27.604;2023-04-24T17:43:24;9.07;;;3.50;;
60426;SDS011;46274;47.168;27.604;2023-04-24T17:49:26;6.50;;;3.33;;
60426;SDS011;46274;47.168;27.604;2023-04-24T17:55:30;17.27;;;9.83;;
60426;SDS011;46274;47.168;27.604;2023-04-24T18:01:33;11.87;;;3.50;;
60426;SDS011;46274;47.168;27.604;2023-04-24T18:07:36;9.53;;;3.37;;
60426;SDS011;46274;47.168;27.604;2023-04-24T18:13:40;10.80;;;3.40;;
60426;SDS011;46274;47.168;27.604;2023-04-24T18:19:43;9.20;;;4.07;;
60426;SDS011;46274;47.168;27.604;2023-04-24T18:25:45;8.30;;;3.10;;
60426;SDS011;46274;47.168;27.604;2023-04-24T18:31:48;8.07;;;3.70;;
60426;SDS011;46274;47.168;27.604;2023-04-24T18:37:50;16.73;;;7.37;;
60426;SDS011;46274;47.168;27.604;2023-04-24T18:43:53;13.13;;;5.77;;
60426;SDS011;46274;47.168;27.604;2023-04-24T18:49:59;10.70;;;6.10;;
60426;SDS011;46274;47.168;27.604;2023-04-24T18:56:02;29.53;;;14.03;;
60426;SDS011;46274;47.168;27.604;2023-04-24T19:02:05;7.43;;;4.20;;
60426;SDS011;46274;47.168;27.604;2023-04-24T19:08:08;6.90;;;3.73;;
60426;SDS011;46274;47.168;27.604;2023-04-24T19:14:11;7.27;;;3.63;;
60426;SDS011;46274;47.168;27.604;2023-04-24T19:20:14;7.30;;;3.70;;
60426;SDS011;46274;47.168;27.604;2023-04-24T19:26:17;10.77;;;3.90;;
60426;SDS011;46274;47.168;27.604;2023-04-24T19:32:19;10.43;;;3.70;;
60426;SDS011;46274;47.168;27.604;2023-04-24T19:38:22;5.87;;;3.47;;
60426;SDS011;46274;47.168;27.604;2023-04-24T19:44:24;6.60;;;3.80;;
60426;SDS011;46274;47.168;27.604;2023-04-24T19:50:27;6.27;;;3.90;;
60426;SDS011;46274;47.168;27.604;2023-04-24T19:56:29;13.20;;;4.50;;
60426;SDS011;46274;47.168;27.604;2023-04-24T20:02:32;8.57;;;4.13;;
60426;SDS011;46274;47.168;27.604;2023-04-24T20:08:37;15.63;;;4.47;;
60426;SDS011;46274;47.168;27.604;2023-04-24T20:14:44;12.13;;;4.57;;
60426;SDS011;46274;47.168;27.604;2023-04-24T20:20:48;6.73;;;3.50;;
60426;SDS011;46274;47.168;27.604;2023-04-24T20:26:50;7.17;;;4.13;;
60426;SDS011;46274;47.168;27.604;2023-04-24T20:32:53;12.03;;;4.23;;
60426;SDS011;46274;47.168;27.604;2023-04-24T20:38:55;9.40;;;4.47;;
60426;SDS011;46274;47.168;27.604;2023-04-24T20:44:59;8.87;;;4.37;;
60426;SDS011;46274;47.168;27.604;2023-04-24T20:51:02;9.33;;;4.17;;
60426;SDS011;46274;47.168;27.604;2023-04-24T20:57:06;7.13;;;3.53;;
60426;SDS011;46274;47.168;27.604;2023-04-24T21:03:09;10.53;;;4.53;;
60426;SDS011;46274;47.168;27.604;2023-04-24T21:09:12;9.30;;;4.53;;
60426;SDS011;46274;47.168;27.604;2023-04-24T21:15:14;7.83;;;4.37;;
60426;SDS011;46274;47.168;27.604;2023-04-24T21:21:18;6.70;;;3.70;;
60426;SDS011;46274;47.168;27.604;2023-04-24T21:27:20;10.93;;;4.23;;
60426;SDS011;46274;47.168;27.604;2023-04-24T21:33:24;7.77;;;4.17;;
60426;SDS011;46274;47.168;27.604;2023-04-24T21:39:26;5.80;;;3.70;;
60426;SDS011;46274;47.168;27.604;2023-04-24T21:45:28;6.03;;;3.40;;
60426;SDS011;46274;47.168;27.604;2023-04-24T21:51:31;9.77;;;4.10;;
60426;SDS011;46274;47.168;27.604;2023-04-24T21:57:33;10.93;;;4.50;;
60426;SDS011;46274;47.168;27.604;2023-04-24T22:03:36;7.13;;;4.43;;
60426;SDS011;46274;47.168;27.604;2023-04-24T22:09:39;6.30;;;3.23;;
60426;SDS011;46274;47.168;27.604;2023-04-24T22:15:41;10.20;;;4.20;;
60426;SDS011;46274;47.168;27.604;2023-04-24T22:21:43;9.23;;;3.90;;
60426;SDS011;46274;47.168;27.604;2023-04-24T22:27:47;6.60;;;3.60;;
60426;SDS011;46274;47.168;27.604;2023-04-24T22:33:49;8.73;;;4.27;;
60426;SDS011;46274;47.168;27.604;2023-04-24T22:39:52;11.03;;;4.50;;
60426;SDS011;46274;47.168;27.604;2023-04-24T22:45:54;10.43;;;4.30;;
60426;SDS011;46274;47.168;27.604;2023-04-24T22:51:57;17.90;;;5.00;;
60426;SDS011;46274;47.168;27.604;2023-04-24T22:57:59;8.43;;;4.17;;
60426;SDS011;46274;47.168;27.604;2023-04-24T23:04:03;10.23;;;3.93;;
60426;SDS011;46274;47.168;27.604;2023-04-24T23:10:06;11.07;;;3.80;;
60426;SDS011;46274;47.168;27.604;2023-04-24T23:16:11;9.57;;;4.63;;
60426;SDS011;46274;47.168;27.604;2023-04-24T23:22:13;8.20;;;3.70;;
60426;SDS011;46274;47.168;27.604;2023-04-24T23:28:17;9.93;;;4.50;;
60426;SDS011;46274;47.168;27.604;2023-04-24T23:34:19;10.47;;;5.23;;
60426;SDS011;46274;47.168;27.604;2023-04-24T23:40:21;5.80;;;3.20;;
60426;SDS011;46274;47.168;27.604;2023-04-24T23:46:24;9.87;;;4.20;;
60426;SDS011;46274;47.168;27.604;2023-04-24T23:52:27;9.03;;;4.93;;
60426;SDS011;46274;47.168;27.604;2023-04-24T23:58:29;6.37;;;3.47;;
